Parkhill, PA (15945)

2:48 AM EDT on June 02, 2015 (GMT -0400)
Chickaree Summit Rainwise Station | | Change Station
CLOSE
Current Station
Personal Weather Station
Location: Johnstown, PA
Elevation: 1759 ft
Nearby Weather Stations

Elev 1759 ft 40.42 °N, 78.87 °W | Updated 9 seconds ago

Rain
Rain
53.9 °F
Feels Like 53.9 °F
N
0.0
Wind Variable Wind from SSE
Gusts 0.0 mph

Today
High -- | Low -- °F
--% Chance of Precip.
Yesterday
High -- | Low -- °F
Precip. -- in
5:47 AM 8:39 PM
Full, 100% visible
Pressure 30.09 in
Visibility 0.2 miles
Clouds
Dew Point 53 °F
Humidity 97%
Rainfall 0.00 in
Snow Depth Not available.
UV Not available.
Pollen .70 out of 12
Air Quality Not available.
Flu Activity Sporadic
METAR KJST 020554Z AUTO 06006KT 1/4SM -RA FG VV002 11/11 A3008 RMK AO2 RAB18 SLP187 P0003 60003 T01110106 10117 20111 56005

More Conditions Fewer Conditions

Pressure 30.09 in
Visibility 0.2 miles
Clouds
Dew Point 53 °F
Humidity 97%
Rainfall 0.00 in
Snow Depth Not available.
UV Not available.
Pollen .70 out of 12
Air Quality Not available.
Flu Activity Sporadic
METAR KJST 020554Z AUTO 06006KT 1/4SM -RA FG VV002 11/11 A3008 RMK AO2 RAB18 SLP187 P0003 60003 T01110106 10117 20111 56005

More Conditions Fewer Conditions

10-Day Weather Forecast

Almanac

Astronomy

Jun. 02, 2015 Rise Set
Actual Time
Civil Twilight
Nautical Twilight
Astronomical Twilight
Moon
Length of Visible Light
Length of Day
Tomorrow will be .
, % of the Moon is Illuminated

Today's Extremes

State Highs State Lows

Community

WunderPhotos

Upload Photos

1,825,918 photos uploaded!

WunderBlogs® & News

Nearby

Air Quality

  Air Quality AQ Index Pollutant
Not available.

Snow Depth

Station Depth Elevation

Earthquake Activity

City Distance Mag. Time & Date
Minimum magnitude displayed is 2.5.

Coastal Water Temperatures

Place Temperature

Stations

Nearby Weather Stations

Station Location Temp. Windchill Dew Point Humidity Wind Precip. Elev Updated Type